Time;durP1;ratioP1;P1;durP2;ratioP2;P2;SDS_P1;SDS_P2;PMS_P1;PMS_P2;Temp;Humidity;BMP_temperature;BMP_pressure;BME280_temperature;BME280_humidity;BME280_pressure;Samples;Min_cycle;Max_cycle;Signal;HPM_P1;HPM_P2
2023/05/04 00:00:40;;;;;;;4.05;1.05;;;10.20;95.50;;;;;;5020138;28;20399;-65
2023/05/04 00:03:06;;;;;;;1.65;0.95;;;10.10;95.70;;;;;;5023574;28;20449;-66
2023/05/04 00:05:31;;;;;;;4.40;1.23;;;10.00;95.90;;;;;;5017547;28;20061;-66
2023/05/04 00:07:57;;;;;;;5.68;1.40;;;10.00;95.90;;;;;;5018304;28;20441;-66
2023/05/04 00:10:22;;;;;;;3.78;1.58;;;9.90;95.90;;;;;;5024343;28;20576;-65
2023/05/04 00:12:48;;;;;;;4.93;1.13;;;9.90;96.10;;;;;;5011331;28;20025;-64
2023/05/04 00:15:14;;;;;;;8.00;1.10;;;9.80;96.30;;;;;;5024203;28;20073;-66
2023/05/04 00:17:40;;;;;;;4.68;1.33;;;9.80;96.30;;;;;;5013095;28;20527;-65
2023/05/04 00:20:06;;;;;;;6.70;1.70;;;9.80;96.30;;;;;;5017658;28;20021;-65
2023/05/04 00:22:32;;;;;;;3.83;1.00;;;9.80;96.30;;;;;;5012460;28;20037;-64
2023/05/04 00:24:57;;;;;;;3.10;1.13;;;9.70;96.40;;;;;;5018231;28;20025;-64
2023/05/04 00:27:23;;;;;;;2.25;1.30;;;9.70;96.40;;;;;;5027226;28;20029;-65
2023/05/04 00:29:48;;;;;;;2.28;1.23;;;9.70;96.40;;;;;;5025246;28;20522;-64
2023/05/04 00:32:14;;;;;;;3.08;1.30;;;9.70;96.60;;;;;;5028305;28;20067;-66
2023/05/04 00:34:39;;;;;;;2.17;1.17;;;9.60;96.70;;;;;;5027600;28;20025;-65
2023/05/04 00:37:05;;;;;;;8.48;1.40;;;9.60;96.70;;;;;;5023565;28;20021;-64
2023/05/04 00:39:33;;;;;;;5.50;1.08;;;9.50;96.80;;;;;;5026487;28;20029;-66
2023/05/04 00:41:59;;;;;;;3.25;1.40;;;9.50;96.90;;;;;;5028137;28;20049;-66
2023/05/04 00:44:26;;;;;;;5.18;1.35;;;9.50;96.90;;;;;;5009761;28;20064;-67
2023/05/04 00:46:52;;;;;;;2.15;1.10;;;9.50;97.00;;;;;;5025750;28;20475;-65
2023/05/04 00:49:20;;;;;;;3.63;1.15;;;9.40;96.90;;;;;;5023132;28;20032;-64
2023/05/04 00:51:46;;;;;;;2.13;1.00;;;9.40;97.10;;;;;;5027240;28;20026;-65
2023/05/04 00:54:15;;;;;;;2.70;1.23;;;9.30;97.40;;;;;;5025843;28;20026;-64
2023/05/04 00:56:42;;;;;;;5.40;1.20;;;9.30;97.60;;;;;;5022496;28;20087;-61
2023/05/04 00:59:08;;;;;;;3.72;1.70;;;9.20;97.60;;;;;;5025737;28;20120;-64
2023/05/04 01:01:33;;;;;;;3.30;1.45;;;9.20;97.70;;;;;;5022695;28;20113;-64
2023/05/04 01:03:59;;;;;;;3.17;1.15;;;9.20;97.40;;;;;;5022463;28;20026;-64
2023/05/04 01:06:39;;;;;;;4.68;1.23;;;9.20;97.60;;;;;;5022609;28;20025;-64
2023/05/04 01:09:30;;;;;;;3.25;1.48;;;9.20;97.80;;;;;;5020718;28;20017;-66
2023/05/04 01:12:07;;;;;;;3.72;1.25;;;9.10;97.70;;;;;;5021590;28;20017;-64
2023/05/04 01:14:34;;;;;;;2.42;1.33;;;9.10;97.70;;;;;;4988422;28;20033;-64
2023/05/04 01:17:04;;;;;;;2.45;0.98;;;9.10;97.60;;;;;;5022645;28;20021;-65
2023/05/04 01:19:29;;;;;;;2.00;1.02;;;9.10;97.80;;;;;;5026683;28;20040;-64
2023/05/04 01:21:55;;;;;;;3.72;1.30;;;9.10;98.00;;;;;;5020761;28;20030;-64
2023/05/04 01:24:22;;;;;;;2.58;1.20;;;9.10;97.80;;;;;;5022067;28;20030;-65
2023/05/04 01:27:07;;;;;;;12.45;1.38;;;9.10;98.20;;;;;;5017571;28;20049;-65
2023/05/04 01:29:51;;;;;;;;;;;9.00;98.20;;;;;;5025674;28;20049;-64
2023/05/04 01:32:18;;;;;;;2.97;1.45;;;9.00;98.10;;;;;;5008514;28;19909;-65
2023/05/04 01:34:44;;;;;;;5.80;1.63;;;9.00;98.50;;;;;;5027001;28;20399;-64
2023/05/04 01:37:09;;;;;;;2.33;1.65;;;9.00;98.40;;;;;;5010807;28;20025;-66
2023/05/04 01:39:35;;;;;;;1.98;1.20;;;9.00;98.10;;;;;;5028497;28;20021;-63
2023/05/04 01:42:01;;;;;;;4.80;1.50;;;9.00;98.10;;;;;;5021367;28;20084;-65
2023/05/04 01:44:26;;;;;;;4.47;1.52;;;9.00;98.30;;;;;;5027219;28;20041;-62
2023/05/04 01:46:52;;;;;;;4.25;1.42;;;9.00;98.40;;;;;;5029389;28;20499;-65
2023/05/04 01:49:18;;;;;;;2.97;1.15;;;9.00;98.40;;;;;;5024356;28;20018;-66
2023/05/04 01:51:45;;;;;;;1.92;1.27;;;8.90;98.60;;;;;;5005138;28;20057;-65
2023/05/04 01:54:11;;;;;;;5.55;1.50;;;8.90;98.80;;;;;;5023348;28;20483;-63
2023/05/04 01:56:36;;;;;;;3.78;1.45;;;8.90;99.10;;;;;;5025468;28;20025;-65
2023/05/04 01:59:02;;;;;;;6.15;1.70;;;8.80;99.00;;;;;;5027184;28;20399;-67
2023/05/04 02:01:28;;;;;;;4.03;1.52;;;8.70;99.50;;;;;;5042597;23;20049;-62
2023/05/04 02:03:53;;;;;;;2.75;1.77;;;8.60;99.90;;;;;;5009937;28;22364;-62
2023/05/04 02:06:19;;;;;;;2.75;1.33;;;8.60;99.90;;;;;;5004288;28;20053;-63
2023/05/04 02:08:45;;;;;;;6.68;2.03;;;8.50;99.90;;;;;;5008391;28;20033;-63
2023/05/04 02:11:11;;;;;;;3.15;1.30;;;8.40;99.90;;;;;;5008540;28;20024;-63
2023/05/04 02:13:36;;;;;;;3.00;1.23;;;8.40;99.90;;;;;;5006513;28;20036;-62
2023/05/04 02:16:02;;;;;;;3.97;1.40;;;8.30;99.90;;;;;;4992125;28;20072;-63
2023/05/04 02:18:28;;;;;;;4.32;1.45;;;8.30;99.90;;;;;;4995512;28;20036;-63
2023/05/04 02:20:53;;;;;;;11.63;2.25;;;8.20;99.90;;;;;;5010422;28;20022;-63
2023/05/04 02:23:19;;;;;;;6.55;1.77;;;8.30;99.90;;;;;;5008925;28;20026;-63
2023/05/04 02:25:44;;;;;;;3.47;1.48;;;8.20;99.90;;;;;;4983989;28;21816;-63
2023/05/04 02:28:10;;;;;;;4.10;1.45;;;8.20;99.90;;;;;;5007711;28;20030;-64
2023/05/04 02:30:36;;;;;;;3.42;1.70;;;8.20;99.90;;;;;;5003498;28;20033;-64
2023/05/04 02:33:01;;;;;;;2.97;1.50;;;8.20;99.90;;;;;;5008768;28;20033;-63
2023/05/04 02:35:27;;;;;;;3.45;1.30;;;8.10;99.90;;;;;;5010205;28;20026;-63
2023/05/04 02:37:52;;;;;;;5.03;2.13;;;8.10;99.90;;;;;;5001482;28;20511;-63
2023/05/04 02:40:18;;;;;;;6.47;1.75;;;8.10;99.90;;;;;;4983661;28;20129;-63
2023/05/04 02:42:43;;;;;;;5.28;2.10;;;8.10;99.90;;;;;;5002158;28;20054;-63
2023/05/04 02:45:10;;;;;;;10.05;2.03;;;8.10;99.90;;;;;;5005869;28;20487;-63
2023/05/04 02:47:35;;;;;;;2.65;1.75;;;8.10;99.90;;;;;;5007633;28;20030;-63
2023/05/04 02:50:01;;;;;;;5.20;1.40;;;8.10;99.90;;;;;;5010421;28;20411;-63
2023/05/04 02:52:26;;;;;;;5.53;1.70;;;8.10;99.90;;;;;;5012611;28;20060;-63
2023/05/04 02:54:52;;;;;;;5.32;2.00;;;8.00;99.90;;;;;;5004172;28;20061;-64
2023/05/04 02:57:17;;;;;;;4.07;1.77;;;8.00;99.90;;;;;;4990676;28;20045;-64
2023/05/04 02:59:43;;;;;;;6.00;1.63;;;8.00;99.90;;;;;;4993908;28;20541;-63
2023/05/04 03:02:09;;;;;;;5.60;1.65;;;8.00;99.90;;;;;;5010258;28;20045;-64
2023/05/04 03:04:34;;;;;;;3.05;1.38;;;8.00;99.90;;;;;;5011291;28;20066;-63
2023/05/04 03:07:00;;;;;;;5.75;1.40;;;8.00;99.90;;;;;;5006616;28;20030;-64
2023/05/04 03:09:25;;;;;;;5.28;1.73;;;8.00;99.90;;;;;;5009657;28;20026;-63
2023/05/04 03:11:51;;;;;;;5.53;1.75;;;8.00;99.90;;;;;;5007170;28;20041;-62
2023/05/04 03:14:17;;;;;;;2.80;1.58;;;8.00;99.90;;;;;;5007187;28;20033;-63
2023/05/04 03:16:42;;;;;;;3.40;1.73;;;7.80;99.90;;;;;;4985317;28;20057;-63
2023/05/04 03:19:08;;;;;;;5.47;1.80;;;7.90;99.90;;;;;;5008239;28;20530;-64
2023/05/04 03:21:33;;;;;;;3.67;1.17;;;7.80;99.90;;;;;;5009924;28;20026;-64
2023/05/04 03:23:59;;;;;;;8.75;2.13;;;7.80;99.90;;;;;;5007753;28;20100;-63
2023/05/04 03:26:24;;;;;;;5.50;1.80;;;7.80;99.90;;;;;;5006590;28;20029;-64
2023/05/04 03:28:50;;;;;;;5.05;2.15;;;7.80;99.90;;;;;;5006507;28;20395;-63
2023/05/04 03:31:16;;;;;;;4.28;1.95;;;7.70;99.90;;;;;;5004095;28;20492;-64
2023/05/04 03:33:41;;;;;;;3.92;2.75;;;7.70;99.90;;;;;;5006047;28;20471;-63
2023/05/04 03:36:08;;;;;;;3.55;1.77;;;7.70;99.90;;;;;;5003722;28;20033;-64
2023/05/04 03:38:33;;;;;;;4.60;1.73;;;7.70;99.90;;;;;;5008471;28;20022;-64
2023/05/04 03:40:59;;;;;;;3.97;1.92;;;7.70;99.90;;;;;;5008305;28;20516;-64
2023/05/04 03:43:25;;;;;;;4.50;1.65;;;7.70;99.90;;;;;;5006060;28;20140;-63
2023/05/04 03:45:50;;;;;;;10.70;1.92;;;7.70;99.90;;;;;;5000018;28;20041;-64
2023/05/04 03:48:16;;;;;;;5.72;2.00;;;7.70;99.90;;;;;;5005036;28;20450;-64
2023/05/04 03:50:41;;;;;;;2.85;1.52;;;7.80;99.90;;;;;;5003659;28;20525;-65
2023/05/04 03:53:07;;;;;;;3.35;2.05;;;7.90;99.90;;;;;;5007808;28;20038;-63
2023/05/04 03:55:32;;;;;;;3.33;2.28;;;8.00;99.90;;;;;;5008368;28;20419;-63
2023/05/04 03:57:58;;;;;;;13.25;3.15;;;8.10;99.90;;;;;;4988117;28;20038;-66
2023/05/04 04:00:23;;;;;;;2.63;1.85;;;8.20;99.90;;;;;;5002378;28;20041;-66
2023/05/04 04:02:49;;;;;;;4.35;1.42;;;8.20;99.90;;;;;;5005484;28;20042;-66
2023/05/04 04:05:15;;;;;;;6.47;1.90;;;8.30;99.90;;;;;;5007467;28;20029;-65
2023/05/04 04:07:40;;;;;;;4.35;1.50;;;8.30;99.90;;;;;;5005606;28;20096;-65
2023/05/04 04:10:07;;;;;;;6.05;1.38;;;8.40;99.90;;;;;;5007181;28;20032;-64
2023/05/04 04:12:32;;;;;;;4.25;1.80;;;8.40;99.90;;;;;;4988097;28;20388;-64
2023/05/04 04:14:58;;;;;;;5.10;1.60;;;8.40;99.90;;;;;;4978938;28;20034;-65
2023/05/04 04:17:23;;;;;;;3.28;1.60;;;8.40;99.90;;;;;;4992362;28;20041;-65
2023/05/04 04:19:49;;;;;;;3.28;1.90;;;8.50;99.90;;;;;;5007958;28;20032;-65
2023/05/04 04:22:15;;;;;;;2.03;1.73;;;8.50;99.90;;;;;;5007007;28;20084;-65
2023/05/04 04:24:40;;;;;;;2.45;1.60;;;8.50;99.90;;;;;;5003746;28;20040;-65
2023/05/04 04:27:06;;;;;;;4.35;1.67;;;8.60;99.90;;;;;;5000838;28;20032;-66
2023/05/04 04:29:34;;;;;;;6.20;1.95;;;8.50;99.90;;;;;;5005478;28;20030;-64
2023/05/04 04:32:00;;;;;;;2.33;1.17;;;8.60;99.90;;;;;;5003685;28;20112;-66
2023/05/04 04:34:26;;;;;;;7.88;1.73;;;8.60;99.90;;;;;;5006564;28;20034;-64
2023/05/04 04:36:51;;;;;;;3.33;1.35;;;8.60;99.90;;;;;;5004790;28;20923;-64
2023/05/04 04:39:17;;;;;;;6.43;1.65;;;8.70;99.90;;;;;;5002065;28;20029;-64
2023/05/04 04:41:42;;;;;;;2.70;1.48;;;8.80;99.90;;;;;;5002040;28;20046;-64
2023/05/04 04:44:08;;;;;;;4.53;1.40;;;8.80;99.90;;;;;;5001697;28;20038;-63
2023/05/04 04:46:33;;;;;;;6.93;1.67;;;8.80;99.90;;;;;;5005529;28;20033;-63
2023/05/04 04:48:59;;;;;;;3.95;2.30;;;8.90;99.90;;;;;;5007610;28;20100;-65
2023/05/04 04:51:25;;;;;;;4.25;1.92;;;8.90;99.90;;;;;;4992283;28;20034;-63
2023/05/04 04:53:51;;;;;;;5.82;1.73;;;9.00;99.90;;;;;;5005678;28;20038;-64
2023/05/04 04:56:19;;;;;;;6.10;1.80;;;9.00;99.90;;;;;;5008910;28;20033;-64
2023/05/04 04:58:46;;;;;;;7.63;1.70;;;9.10;99.90;;;;;;5005933;28;20068;-64
2023/05/04 05:01:16;;;;;;;6.82;2.42;;;9.20;99.90;;;;;;5008146;28;20503;-63
2023/05/04 05:03:45;;;;;;;2.45;1.50;;;9.20;99.90;;;;;;4988036;28;20042;-64
2023/05/04 05:06:11;;;;;;;3.20;1.42;;;9.40;99.90;;;;;;4989363;28;20049;-64
2023/05/04 05:08:37;;;;;;;6.75;2.15;;;9.60;99.90;;;;;;5001358;28;20050;-64
2023/05/04 05:11:03;;;;;;;5.47;1.65;;;10.00;99.90;;;;;;5004244;28;20072;-64
2023/05/04 05:13:29;;;;;;;3.63;1.60;;;10.30;99.40;;;;;;5003626;28;20108;-64
2023/05/04 05:15:55;;;;;;;5.03;1.70;;;10.50;98.90;;;;;;5001815;28;20045;-63
2023/05/04 05:18:21;;;;;;;3.78;1.85;;;10.50;98.70;;;;;;4991215;28;20042;-63
2023/05/04 05:20:47;;;;;;;4.82;1.45;;;10.40;98.90;;;;;;5005182;28;20026;-64
2023/05/04 05:23:12;;;;;;;2.63;1.63;;;10.50;98.90;;;;;;5004743;28;20134;-64
2023/05/04 05:25:38;;;;;;;3.08;1.65;;;11.00;98.20;;;;;;5007356;28;20037;-65
2023/05/04 05:28:04;;;;;;;2.10;1.52;;;11.70;97.30;;;;;;5004499;28;20026;-65
2023/05/04 05:30:30;;;;;;;2.80;1.40;;;12.50;97.20;;;;;;5001680;28;20496;-64
2023/05/04 05:32:55;;;;;;;6.38;1.20;;;13.50;94.20;;;;;;4985568;28;20144;-63
2023/05/04 05:35:21;;;;;;;9.95;1.75;;;14.40;93.20;;;;;;5006519;28;20030;-65
2023/05/04 05:37:48;;;;;;;4.60;1.90;;;15.50;91.50;;;;;;5005036;28;20034;-65
2023/05/04 05:40:14;;;;;;;3.10;1.67;;;16.50;90.30;;;;;;5002023;28;20034;-65
2023/05/04 05:42:41;;;;;;;2.63;1.50;;;17.00;89.70;;;;;;5004400;28;20058;-64
2023/05/04 05:45:09;;;;;;;2.63;1.70;;;17.60;86.80;;;;;;5002458;28;20034;-65
2023/05/04 05:47:35;;;;;;;4.15;2.00;;;18.90;81.70;;;;;;5006756;28;20034;-65
2023/05/04 05:50:01;;;;;;;3.70;2.05;;;18.50;83.00;;;;;;5004706;28;20101;-64
2023/05/04 05:52:27;;;;;;;2.30;1.42;;;18.80;80.50;;;;;;5003120;28;20543;-65
2023/05/04 05:54:53;;;;;;;5.28;1.65;;;19.20;80.00;;;;;;5001743;28;20113;-64
2023/05/04 05:57:19;;;;;;;1.88;1.23;;;20.00;78.40;;;;;;5003270;28;20034;-65
2023/05/04 05:59:46;;;;;;;3.08;1.23;;;19.80;76.90;;;;;;5002022;28;20038;-64
2023/05/04 06:02:13;;;;;;;3.28;1.38;;;20.50;75.40;;;;;;5004929;28;20030;-65
2023/05/04 06:04:43;;;;;;;2.88;1.55;;;20.50;74.90;;;;;;5006718;28;20037;-64
2023/05/04 06:07:09;;;;;;;3.65;1.90;;;21.00;74.40;;;;;;5004996;28;20442;-64
2023/05/04 06:09:35;;;;;;;7.40;2.17;;;20.80;74.90;;;;;;5006010;28;20049;-65
2023/05/04 06:12:02;;;;;;;2.72;1.38;;;21.00;72.60;;;;;;5004384;28;20022;-66
2023/05/04 06:14:27;;;;;;;5.25;1.70;;;22.40;71.60;;;;;;4994508;28;20029;-64
2023/05/04 06:16:53;;;;;;;9.43;1.70;;;22.40;69.40;;;;;;4991316;28;20030;-66
2023/05/04 06:19:18;;;;;;;4.57;1.70;;;22.40;69.70;;;;;;5009168;28;20038;-66
2023/05/04 06:21:47;;;;;;;6.10;1.70;;;23.20;69.00;;;;;;5010325;28;20527;-65
2023/05/04 06:24:12;;;;;;;6.63;1.63;;;22.70;67.20;;;;;;5010440;28;20022;-65
2023/05/04 06:26:38;;;;;;;8.60;1.90;;;23.80;66.40;;;;;;5009236;28;20049;-64
2023/05/04 06:29:03;;;;;;;4.32;1.50;;;23.50;64.80;;;;;;5008781;28;20014;-65
2023/05/04 06:31:29;;;;;;;5.13;1.50;;;23.10;66.40;;;;;;5007846;28;20490;-65
2023/05/04 06:33:55;;;;;;;4.85;1.80;;;23.40;68.30;;;;;;5008543;28;20022;-64
2023/05/04 06:36:20;;;;;;;4.93;2.35;;;23.20;65.30;;;;;;5010305;28;20022;-65
2023/05/04 06:38:46;;;;;;;5.78;1.85;;;22.80;65.40;;;;;;5008451;28;20119;-64
2023/05/04 06:41:11;;;;;;;8.55;2.47;;;21.60;68.50;;;;;;5006948;28;20483;-65
2023/05/04 06:43:40;;;;;;;6.18;2.65;;;21.50;67.60;;;;;;5008397;28;20057;-64
2023/05/04 06:46:06;;;;;;;4.97;1.90;;;21.60;68.30;;;;;;5007488;28;20037;-65
2023/05/04 06:48:32;;;;;;;8.88;1.67;;;20.60;70.20;;;;;;5011003;28;20030;-64
2023/05/04 06:50:57;;;;;;;5.65;1.83;;;20.80;71.00;;;;;;5010416;28;20022;-65
2023/05/04 06:53:23;;;;;;;3.05;1.40;;;20.10;72.40;;;;;;5009740;28;20049;-65
2023/05/04 06:55:49;;;;;;;4.75;1.88;;;20.50;72.20;;;;;;5009562;28;20040;-65
2023/05/04 06:58:16;;;;;;;5.18;2.08;;;20.40;74.10;;;;;;5010648;28;20022;-65
2023/05/04 07:00:42;;;;;;;5.13;1.42;;;21.00;70.90;;;;;;5008406;28;20026;-65
2023/05/04 07:03:07;;;;;;;5.65;1.83;;;20.90;70.80;;;;;;5010305;28;20104;-66
2023/05/04 07:05:35;;;;;;;4.43;1.40;;;21.40;73.10;;;;;;5011692;28;20026;-65
2023/05/04 07:08:01;;;;;;;6.43;1.70;;;21.90;71.50;;;;;;5002836;28;20160;-65
2023/05/04 07:10:27;;;;;;;5.53;1.38;;;22.00;70.50;;;;;;5005390;28;20140;-65
2023/05/04 07:12:53;;;;;;;5.40;1.20;;;22.30;69.30;;;;;;5009394;28;20064;-65
2023/05/04 07:15:19;;;;;;;4.95;2.00;;;22.30;70.70;;;;;;5005801;28;20026;-65
2023/05/04 07:17:46;;;;;;;3.95;1.70;;;22.70;69.70;;;;;;4992461;28;20026;-65
2023/05/04 07:20:13;;;;;;;4.07;1.98;;;23.80;67.60;;;;;;5006305;28;20092;-65
2023/05/04 07:22:39;;;;;;;6.25;1.45;;;23.70;66.10;;;;;;5008449;28;20038;-65
2023/05/04 07:25:05;;;;;;;6.20;1.67;;;23.70;67.30;;;;;;5005757;28;20113;-65
2023/05/04 07:27:31;;;;;;;3.13;1.88;;;23.00;68.10;;;;;;5005830;28;20036;-64
2023/05/04 07:29:57;;;;;;;15.48;1.77;;;23.00;67.30;;;;;;5007558;28;21989;-65
2023/05/04 07:32:23;;;;;;;5.60;1.70;;;23.20;67.40;;;;;;5002026;28;20040;-65
2023/05/04 07:34:48;;;;;;;4.13;1.52;;;23.90;66.60;;;;;;5008337;28;20037;-66
2023/05/04 07:37:17;;;;;;;2.90;1.52;;;23.80;67.50;;;;;;5008783;28;20046;-65
2023/05/04 07:39:43;;;;;;;5.00;1.10;;;24.00;68.30;;;;;;5006414;28;20499;-66
2023/05/04 07:42:10;;;;;;;2.33;1.45;;;24.30;65.40;;;;;;5008741;28;20042;-65
2023/05/04 07:44:36;;;;;;;4.47;1.80;;;24.50;64.90;;;;;;5002865;28;20559;-65
2023/05/04 07:47:01;;;;;;;4.05;1.88;;;25.00;64.40;;;;;;5005962;28;20113;-66
2023/05/04 07:49:27;;;;;;;3.08;1.63;;;25.60;64.50;;;;;;5007310;28;20026;-65
2023/05/04 07:51:53;;;;;;;3.63;1.52;;;26.00;63.50;;;;;;5004957;28;20052;-65
2023/05/04 07:54:19;;;;;;;4.25;2.30;;;25.00;64.90;;;;;;5003853;28;20108;-65
2023/05/04 07:56:45;;;;;;;5.43;2.45;;;24.60;63.70;;;;;;5010116;28;20034;-65
2023/05/04 07:59:11;;;;;;;4.05;2.03;;;25.40;63.80;;;;;;5007417;28;20030;-64
2023/05/04 08:01:36;;;;;;;5.35;2.03;;;25.90;63.30;;;;;;5007032;28;20084;-65
2023/05/04 08:04:02;;;;;;;3.20;1.67;;;25.80;61.90;;;;;;5029873;23;20438;-68
2023/05/04 08:06:27;;;;;;;5.35;1.80;;;25.60;62.50;;;;;;5027033;28;20124;-67
2023/05/04 08:08:53;;;;;;;5.00;2.22;;;25.80;62.20;;;;;;5027069;28;20036;-71
2023/05/04 08:11:19;;;;;;;3.20;1.80;;;25.50;63.30;;;;;;5011094;28;20040;-67
2023/05/04 08:13:49;;;;;;;6.00;2.05;;;25.30;64.00;;;;;;5024051;28;20025;-67
2023/05/04 08:16:14;;;;;;;6.78;2.33;;;25.70;62.50;;;;;;5026824;28;20448;-68
2023/05/04 08:18:40;;;;;;;6.70;2.00;;;25.60;62.10;;;;;;5025342;28;20045;-68
2023/05/04 08:21:05;;;;;;;4.43;1.90;;;25.70;62.90;;;;;;5028181;28;20104;-68
2023/05/04 08:23:32;;;;;;;5.10;2.00;;;26.70;62.80;;;;;;5009470;28;20065;-67
2023/05/04 08:26:01;;;;;;;5.25;1.88;;;26.80;63.00;;;;;;5020306;28;20052;-68
2023/05/04 08:28:27;;;;;;;3.58;1.90;;;26.70;61.10;;;;;;5022961;28;20540;-68
2023/05/04 08:30:52;;;;;;;5.97;2.10;;;26.30;62.70;;;;;;5025966;28;20084;-66
2023/05/04 08:33:18;;;;;;;3.85;1.90;;;25.90;63.20;;;;;;5025805;28;20025;-69
2023/05/04 08:35:44;;;;;;;12.27;2.50;;;25.90;63.90;;;;;;5029688;28;20030;-68
2023/05/04 08:38:10;;;;;;;5.22;2.40;;;26.50;62.50;;;;;;5024701;28;20037;-68
2023/05/04 08:40:39;;;;;;;6.72;2.03;;;26.40;63.20;;;;;;5024626;28;20045;-69
2023/05/04 08:43:04;;;;;;;4.38;2.85;;;26.80;63.80;;;;;;5027432;28;20116;-68
2023/05/04 08:45:32;;;;;;;6.63;2.33;;;26.90;61.30;;;;;;5020744;28;20113;-68
2023/05/04 08:47:57;;;;;;;3.00;2.20;;;26.60;62.90;;;;;;5026588;28;20033;-67
2023/05/04 08:50:23;;;;;;;4.68;2.35;;;27.00;64.60;;;;;;5024022;28;20052;-68
2023/05/04 08:52:51;;;;;;;4.85;2.33;;;27.10;61.50;;;;;;5026699;28;20032;-68
2023/05/04 08:55:17;;;;;;;5.38;2.35;;;27.00;62.60;;;;;;5028193;28;20025;-67
2023/05/04 08:57:43;;;;;;;5.15;2.13;;;27.90;60.90;;;;;;5028202;28;20056;-68
2023/05/04 09:00:11;;;;;;;6.07;2.28;;;27.80;61.60;;;;;;5026674;28;20449;-67
2023/05/04 09:02:37;;;;;;;5.00;2.50;;;27.50;62.40;;;;;;5022480;28;20395;-67
2023/05/04 09:05:06;;;;;;;2.90;2.05;;;27.60;63.10;;;;;;5027674;28;20025;-68
2023/05/04 09:07:32;;;;;;;3.13;2.28;;;27.60;62.40;;;;;;5027353;28;20505;-67
2023/05/04 09:09:58;;;;;;;3.70;2.20;;;28.10;61.30;;;;;;5025473;28;20042;-67
2023/05/04 09:12:26;;;;;;;3.30;2.42;;;28.30;60.30;;;;;;5021385;28;20112;-66
2023/05/04 09:14:52;;;;;;;5.60;2.33;;;27.50;60.60;;;;;;5024013;28;20394;-67
2023/05/04 09:17:26;;;;;;;5.35;2.67;;;26.90;61.70;;;;;;5028368;28;20029;-67
2023/05/04 09:20:00;;;;;;;4.93;2.00;;;27.00;62.70;;;;;;5025264;28;20510;-67
2023/05/04 09:22:26;;;;;;;3.70;2.30;;;27.40;62.50;;;;;;5006516;28;20803;-67
2023/05/04 09:24:52;;;;;;;4.13;2.40;;;27.80;62.40;;;;;;5022097;28;20395;-68
2023/05/04 09:27:18;;;;;;;7.28;2.40;;;28.00;62.00;;;;;;5008152;28;20102;-68
2023/05/04 09:29:52;;;;;;;3.90;2.20;;;28.20;59.90;;;;;;5022778;28;20104;-68
2023/05/04 09:32:17;;;;;;;9.65;2.15;;;28.50;59.90;;;;;;5028025;28;20548;-69
2023/05/04 09:34:50;;;;;;;6.07;2.30;;;28.70;60.10;;;;;;5026013;28;20033;-70
2023/05/04 09:37:19;;;;;;;5.43;2.20;;;28.30;59.40;;;;;;5026051;28;20024;-68
2023/05/04 09:39:57;;;;;;;3.17;1.90;;;28.20;61.10;;;;;;5025170;28;20029;-69
2023/05/04 09:42:23;;;;;;;5.90;2.10;;;27.50;59.40;;;;;;5026949;28;20517;-68
2023/05/04 09:44:58;;;;;;;7.85;1.58;;;27.30;60.80;;;;;;5017777;28;20026;-67
2023/05/04 09:47:35;;;;;;;3.45;1.67;;;27.40;62.30;;;;;;5020656;28;20025;-68
2023/05/04 09:50:32;;;;;;;4.53;1.75;;;27.80;60.40;;;;;;5031059;28;20022;-68
2023/05/04 09:52:58;;;;;;;5.18;1.30;;;27.70;58.60;;;;;;5010877;28;20271;-67
2023/05/04 09:55:25;;;;;;;4.25;1.98;;;28.30;56.90;;;;;;5028759;28;20072;-67
2023/05/04 09:57:51;;;;;;;3.10;1.33;;;27.50;57.30;;;;;;5021554;28;20033;-66
2023/05/04 10:00:17;;;;;;;3.47;2.05;;;27.30;59.80;;;;;;5028429;28;20475;-68
2023/05/04 10:02:45;;;;;;;2.45;1.30;;;27.00;60.00;;;;;;5030611;28;20570;-67
2023/05/04 10:05:15;;;;;;;2.80;1.52;;;26.50;61.50;;;;;;5029977;28;20476;-67
2023/05/04 10:07:42;;;;;;;3.97;1.80;;;26.30;61.00;;;;;;5028035;28;20037;-67
2023/05/04 10:10:11;;;;;;;5.65;1.75;;;26.20;61.10;;;;;;5028810;28;20108;-67
2023/05/04 10:12:36;;;;;;;5.75;1.63;;;25.90;60.40;;;;;;5026504;28;20396;-67
2023/05/04 10:15:06;;;;;;;5.10;2.45;;;25.30;59.40;;;;;;5022073;28;20038;-67
2023/05/04 10:18:02;;;;;;;3.25;1.80;;;24.80;59.20;;;;;;5027552;28;20088;-67
2023/05/04 10:20:30;;;;;;;6.28;2.40;;;24.70;59.20;;;;;;5030611;28;20034;-67
2023/05/04 10:23:06;;;;;;;3.53;1.70;;;24.10;59.00;;;;;;5028720;28;20057;-67
2023/05/04 10:25:50;;;;;;;5.07;2.95;;;23.60;61.30;;;;;;5013215;28;20107;-67
2023/05/04 10:28:53;;;;;;;9.45;1.75;;;23.80;63.60;;;;;;5022937;28;20022;-67
2023/05/04 10:31:20;;;;;;;3.38;1.90;;;23.60;60.60;;;;;;5025758;28;20032;-68
2023/05/04 10:33:45;;;;;;;2.05;1.65;;;23.60;60.60;;;;;;5026996;28;20415;-68
2023/05/04 10:36:11;;;;;;;3.58;2.30;;;23.60;63.00;;;;;;5029710;28;20033;-67
2023/05/04 10:38:38;;;;;;;3.53;2.35;;;23.80;61.90;;;;;;5026675;28;20093;-68
2023/05/04 10:41:14;;;;;;;3.25;2.13;;;23.70;61.60;;;;;;5012736;28;20030;-67
2023/05/04 10:43:41;;;;;;;3.75;1.90;;;23.70;61.10;;;;;;5025451;28;20049;-67
2023/05/04 10:46:20;;;;;;;2.42;1.88;;;23.80;62.60;;;;;;5024103;28;20523;-68
2023/05/04 10:48:46;;;;;;;4.97;2.47;;;23.90;61.70;;;;;;5029760;28;20040;-68
2023/05/04 10:51:20;;;;;;;4.20;1.88;;;23.90;60.80;;;;;;5027139;28;20116;-68
2023/05/04 10:53:48;;;;;;;4.82;1.90;;;23.90;62.40;;;;;;5027856;28;20038;-68
2023/05/04 10:56:27;;;;;;;8.82;1.70;;;23.90;61.60;;;;;;5029398;28;20033;-67
2023/05/04 10:58:54;;;;;;;10.77;1.98;;;23.90;62.40;;;;;;5030083;28;20026;-68
2023/05/04 11:01:20;;;;;;;5.10;2.05;;;24.00;62.50;;;;;;5023657;28;20559;-68
2023/05/04 11:03:47;;;;;;;6.22;1.88;;;23.80;61.20;;;;;;5029658;28;20033;-67
2023/05/04 11:06:16;;;;;;;3.78;2.20;;;23.80;60.50;;;;;;5023680;28;20030;-68
2023/05/04 11:08:42;;;;;;;3.55;1.77;;;23.60;59.60;;;;;;5025502;28;20029;-66
2023/05/04 11:11:08;;;;;;;5.60;2.25;;;23.60;62.00;;;;;;5028887;28;20087;-69
2023/05/04 11:13:39;;;;;;;4.10;2.38;;;23.70;60.60;;;;;;5019946;28;20439;-68
2023/05/04 11:16:05;;;;;;;4.60;2.28;;;23.60;60.00;;;;;;5025674;28;20479;-66
2023/05/04 11:18:36;;;;;;;7.90;1.90;;;23.70;62.60;;;;;;5023506;28;20029;-67
2023/05/04 11:21:02;;;;;;;4.80;2.08;;;23.80;61.30;;;;;;5025275;28;20443;-68
2023/05/04 11:23:28;;;;;;;9.00;1.75;;;23.80;60.90;;;;;;5007320;28;20033;-66
2023/05/04 11:25:54;;;;;;;7.53;2.10;;;23.70;60.00;;;;;;5008776;28;20049;-67
2023/05/04 11:28:32;;;;;;;5.85;2.55;;;23.70;63.00;;;;;;5026971;28;20036;-66
2023/05/04 11:30:57;;;;;;;3.22;2.15;;;23.70;61.40;;;;;;5025162;28;20030;-66
2023/05/04 11:33:23;;;;;;;3.97;2.40;;;23.30;58.80;;;;;;5028540;28;20031;-68
2023/05/04 11:35:49;;;;;;;5.68;2.65;;;23.20;61.00;;;;;;5027223;28;20079;-67
2023/05/04 11:38:20;;;;;;;2.88;1.58;;;23.10;60.80;;;;;;5023896;28;20029;-66
2023/05/04 11:40:47;;;;;;;1.95;1.50;;;23.20;61.00;;;;;;5029376;28;20091;-67
2023/05/04 11:43:12;;;;;;;2.58;1.90;;;23.30;62.50;;;;;;5021442;28;20032;-66
2023/05/04 11:45:40;;;;;;;3.05;2.15;;;23.30;61.00;;;;;;5004688;28;20025;-68
2023/05/04 11:48:07;;;;;;;3.83;2.00;;;23.40;61.00;;;;;;5007210;28;20104;-66
2023/05/04 11:50:34;;;;;;;12.93;2.30;;;23.30;60.70;;;;;;5024582;28;20035;-67
2023/05/04 11:53:11;;;;;;;7.88;1.98;;;23.30;60.00;;;;;;5025606;28;20026;-67
2023/05/04 11:55:37;;;;;;;4.15;1.70;;;23.30;60.50;;;;;;5027137;28;20037;-67
2023/05/04 11:58:04;;;;;;;3.38;2.30;;;23.20;59.50;;;;;;5026441;28;20029;-67
2023/05/04 12:00:36;;;;;;;5.25;2.30;;;23.20;61.50;;;;;;5009327;28;20028;-68
2023/05/04 12:03:02;;;;;;;8.20;2.10;;;23.10;61.10;;;;;;5025300;28;20021;-68
2023/05/04 12:05:29;;;;;;;6.22;2.58;;;22.90;61.90;;;;;;4984891;28;1116329;-67
2023/05/04 12:07:55;;;;;;;6.90;2.00;;;22.80;56.90;;;;;;5027696;28;20084;-67
2023/05/04 12:10:25;;;;;;;4.63;1.88;;;22.70;60.00;;;;;;5029917;28;20025;-67
2023/05/04 12:12:51;;;;;;;2.38;1.85;;;22.60;57.30;;;;;;5022194;28;20040;-67
2023/05/04 12:15:27;;;;;;;5.30;1.60;;;22.70;58.30;;;;;;5007320;28;20022;-69
2023/05/04 12:17:52;;;;;;;1.67;1.33;;;22.70;58.00;;;;;;5026369;28;20040;-66
2023/05/04 12:20:23;;;;;;;3.60;1.85;;;22.80;59.40;;;;;;5026047;28;20029;-67
2023/05/04 12:22:48;;;;;;;5.65;2.13;;;22.90;58.20;;;;;;5025173;28;20033;-68
2023/05/04 12:25:17;;;;;;;4.53;1.75;;;23.00;60.10;;;;;;5009873;28;20038;-67
2023/05/04 12:27:43;;;;;;;6.50;1.80;;;23.10;60.20;;;;;;5025792;28;20486;-65
2023/05/04 12:30:09;;;;;;;3.03;1.52;;;23.20;59.30;;;;;;5027948;28;20029;-68
2023/05/04 12:32:35;;;;;;;2.28;1.67;;;23.10;59.50;;;;;;5010821;28;20026;-67
2023/05/04 12:35:01;;;;;;;3.35;1.70;;;23.10;59.10;;;;;;5024984;28;20091;-67
2023/05/04 12:37:26;;;;;;;3.03;1.73;;;23.10;59.80;;;;;;5027872;28;20104;-67
2023/05/04 12:39:52;;;;;;;2.85;1.98;;;23.10;59.80;;;;;;5024471;28;20064;-67
2023/05/04 12:42:17;;;;;;;4.18;1.92;;;23.10;60.20;;;;;;5024752;28;20021;-68
2023/05/04 12:44:43;;;;;;;2.40;1.52;;;22.90;58.40;;;;;;5021471;28;20021;-67
2023/05/04 12:47:08;;;;;;;4.93;2.10;;;22.90;60.70;;;;;;5024648;28;20029;-68
2023/05/04 12:49:34;;;;;;;2.95;2.28;;;22.90;59.70;;;;;;5029453;28;20511;-67